sensor_id;sensor_type;location;lat;lon;timestamp;temperature;humidity
29341;DHT22;16337;59.536;13.468;2023-04-07T00:01:49;-3.10;99.90
29341;DHT22;16337;59.536;13.468;2023-04-07T00:04:15;-3.10;99.90
29341;DHT22;16337;59.536;13.468;2023-04-07T00:06:40;-3.20;99.90
29341;DHT22;16337;59.536;13.468;2023-04-07T00:09:08;-3.20;99.90
29341;DHT22;16337;59.536;13.468;2023-04-07T00:11:35;-3.20;99.90
29341;DHT22;16337;59.536;13.468;2023-04-07T00:14:00;-3.20;99.90
29341;DHT22;16337;59.536;13.468;2023-04-07T00:16:26;-3.20;99.90
29341;DHT22;16337;59.536;13.468;2023-04-07T00:18:55;-3.30;99.90
29341;DHT22;16337;59.536;13.468;2023-04-07T00:21:21;-3.30;99.90
29341;DHT22;16337;59.536;13.468;2023-04-07T00:23:46;-3.30;99.90
29341;DHT22;16337;59.536;13.468;2023-04-07T00:26:13;-3.30;99.90
29341;DHT22;16337;59.536;13.468;2023-04-07T00:28:41;-3.40;99.90
29341;DHT22;16337;59.536;13.468;2023-04-07T00:31:07;-3.30;99.90
29341;DHT22;16337;59.536;13.468;2023-04-07T00:33:32;-3.30;99.90
29341;DHT22;16337;59.536;13.468;2023-04-07T00:35:58;-3.30;99.90
29341;DHT22;16337;59.536;13.468;2023-04-07T00:38:24;-3.30;99.90
29341;DHT22;16337;59.536;13.468;2023-04-07T00:40:56;-3.30;99.90
29341;DHT22;16337;59.536;13.468;2023-04-07T00:43:22;-3.30;99.90
29341;DHT22;16337;59.536;13.468;2023-04-07T00:45:50;-3.40;99.90
29341;DHT22;16337;59.536;13.468;2023-04-07T00:48:15;-3.40;99.90
29341;DHT22;16337;59.536;13.468;2023-04-07T00:50:41;-3.50;99.90
29341;DHT22;16337;59.536;13.468;2023-04-07T00:53:07;-3.50;99.90
29341;DHT22;16337;59.536;13.468;2023-04-07T00:55:33;-3.50;99.90
29341;DHT22;16337;59.536;13.468;2023-04-07T00:57:59;-3.50;99.90
29341;DHT22;16337;59.536;13.468;2023-04-07T01:00:27;-3.50;99.90
29341;DHT22;16337;59.536;13.468;2023-04-07T01:03:00;-3.50;99.90
29341;DHT22;16337;59.536;13.468;2023-04-07T01:06:08;-3.50;99.90
29341;DHT22;16337;59.536;13.468;2023-04-07T01:13:51;-3.60;99.90
29341;DHT22;16337;59.536;13.468;2023-04-07T01:16:50;-3.60;99.90
29341;DHT22;16337;59.536;13.468;2023-04-07T01:19:38;-3.60;99.90
29341;DHT22;16337;59.536;13.468;2023-04-07T01:22:12;-3.70;99.90
29341;DHT22;16337;59.536;13.468;2023-04-07T01:30:02;-3.70;99.90
29341;DHT22;16337;59.536;13.468;2023-04-07T01:32:30;-3.80;99.90
29341;DHT22;16337;59.536;13.468;2023-04-07T01:34:57;-3.70;99.90
29341;DHT22;16337;59.536;13.468;2023-04-07T01:37:26;-3.70;99.90
29341;DHT22;16337;59.536;13.468;2023-04-07T01:39:52;-3.70;99.90
29341;DHT22;16337;59.536;13.468;2023-04-07T01:42:19;-3.80;99.90
29341;DHT22;16337;59.536;13.468;2023-04-07T01:44:45;-3.70;99.90
29341;DHT22;16337;59.536;13.468;2023-04-07T01:47:12;-3.80;99.90
29341;DHT22;16337;59.536;13.468;2023-04-07T01:49:39;-3.80;99.90
29341;DHT22;16337;59.536;13.468;2023-04-07T01:52:06;-3.80;99.90
29341;DHT22;16337;59.536;13.468;2023-04-07T01:54:33;-3.80;99.90
29341;DHT22;16337;59.536;13.468;2023-04-07T01:56:59;-3.80;99.90
29341;DHT22;16337;59.536;13.468;2023-04-07T01:59:26;-3.80;99.90
29341;DHT22;16337;59.536;13.468;2023-04-07T02:01:52;-3.80;99.90
29341;DHT22;16337;59.536;13.468;2023-04-07T02:06:55;-3.80;99.90
29341;DHT22;16337;59.536;13.468;2023-04-07T02:09:26;-3.80;99.90
29341;DHT22;16337;59.536;13.468;2023-04-07T02:11:55;-3.80;99.90
29341;DHT22;16337;59.536;13.468;2023-04-07T02:14:23;-3.80;99.90
29341;DHT22;16337;59.536;13.468;2023-04-07T02:16:50;-3.90;99.90
29341;DHT22;16337;59.536;13.468;2023-04-07T02:19:17;-3.90;99.90
29341;DHT22;16337;59.536;13.468;2023-04-07T02:21:43;-3.90;99.90
29341;DHT22;16337;59.536;13.468;2023-04-07T02:24:10;-3.90;99.90
29341;DHT22;16337;59.536;13.468;2023-04-07T02:26:36;-3.90;99.90
29341;DHT22;16337;59.536;13.468;2023-04-07T02:29:03;-3.90;99.90
29341;DHT22;16337;59.536;13.468;2023-04-07T02:31:29;-3.80;99.90
29341;DHT22;16337;59.536;13.468;2023-04-07T02:33:55;-3.90;99.90
29341;DHT22;16337;59.536;13.468;2023-04-07T02:36:21;-3.80;99.90
29341;DHT22;16337;59.536;13.468;2023-04-07T02:38:46;-3.90;99.90
29341;DHT22;16337;59.536;13.468;2023-04-07T02:41:12;-3.90;99.90
29341;DHT22;16337;59.536;13.468;2023-04-07T02:43:38;-3.90;99.90
29341;DHT22;16337;59.536;13.468;2023-04-07T02:46:03;-3.90;99.90
29341;DHT22;16337;59.536;13.468;2023-04-07T02:48:29;-3.90;99.90
29341;DHT22;16337;59.536;13.468;2023-04-07T02:50:55;-3.90;99.90
29341;DHT22;16337;59.536;13.468;2023-04-07T02:53:21;-4.00;99.90
29341;DHT22;16337;59.536;13.468;2023-04-07T02:55:47;-4.00;99.90
29341;DHT22;16337;59.536;13.468;2023-04-07T02:58:12;-3.90;99.90
29341;DHT22;16337;59.536;13.468;2023-04-07T03:00:38;-4.00;99.90
29341;DHT22;16337;59.536;13.468;2023-04-07T03:03:04;-3.90;99.90
29341;DHT22;16337;59.536;13.468;2023-04-07T03:05:29;-4.00;99.90
29341;DHT22;16337;59.536;13.468;2023-04-07T03:07:56;-3.90;99.90
29341;DHT22;16337;59.536;13.468;2023-04-07T03:10:21;-4.00;99.90
29341;DHT22;16337;59.536;13.468;2023-04-07T03:12:47;-4.00;99.90
29341;DHT22;16337;59.536;13.468;2023-04-07T03:15:13;-3.90;99.90
29341;DHT22;16337;59.536;13.468;2023-04-07T03:17:39;-4.00;99.90
29341;DHT22;16337;59.536;13.468;2023-04-07T03:20:06;-3.90;99.90
29341;DHT22;16337;59.536;13.468;2023-04-07T03:22:32;-4.00;99.90
29341;DHT22;16337;59.536;13.468;2023-04-07T03:24:57;-4.00;99.90
29341;DHT22;16337;59.536;13.468;2023-04-07T03:27:24;-4.00;99.90
29341;DHT22;16337;59.536;13.468;2023-04-07T03:29:49;-4.00;99.90
29341;DHT22;16337;59.536;13.468;2023-04-07T03:32:15;-4.00;99.90
29341;DHT22;16337;59.536;13.468;2023-04-07T03:34:41;-4.00;99.90
29341;DHT22;16337;59.536;13.468;2023-04-07T03:37:07;-4.00;99.90
29341;DHT22;16337;59.536;13.468;2023-04-07T03:39:33;-4.00;99.90
29341;DHT22;16337;59.536;13.468;2023-04-07T03:42:02;-4.00;99.90
29341;DHT22;16337;59.536;13.468;2023-04-07T03:44:28;-4.10;99.90
29341;DHT22;16337;59.536;13.468;2023-04-07T03:46:53;-4.00;99.90
29341;DHT22;16337;59.536;13.468;2023-04-07T03:49:19;-4.00;99.90
29341;DHT22;16337;59.536;13.468;2023-04-07T03:51:46;-4.00;99.90
29341;DHT22;16337;59.536;13.468;2023-04-07T03:54:11;-4.10;99.90
29341;DHT22;16337;59.536;13.468;2023-04-07T03:56:37;-4.10;99.90
29341;DHT22;16337;59.536;13.468;2023-04-07T03:59:03;-4.00;99.90
29341;DHT22;16337;59.536;13.468;2023-04-07T04:01:29;-4.10;99.90
29341;DHT22;16337;59.536;13.468;2023-04-07T04:03:56;-4.10;99.90
29341;DHT22;16337;59.536;13.468;2023-04-07T04:06:21;-4.10;99.90
29341;DHT22;16337;59.536;13.468;2023-04-07T04:08:47;-4.10;99.90
29341;DHT22;16337;59.536;13.468;2023-04-07T04:11:13;-4.20;99.90
29341;DHT22;16337;59.536;13.468;2023-04-07T04:13:38;-4.20;99.90
29341;DHT22;16337;59.536;13.468;2023-04-07T04:16:05;-4.20;99.90
29341;DHT22;16337;59.536;13.468;2023-04-07T04:18:30;-4.20;99.90
29341;DHT22;16337;59.536;13.468;2023-04-07T04:20:56;-4.20;99.90
29341;DHT22;16337;59.536;13.468;2023-04-07T04:23:22;-4.20;99.90
29341;DHT22;16337;59.536;13.468;2023-04-07T04:25:48;-4.30;99.90
29341;DHT22;16337;59.536;13.468;2023-04-07T04:28:13;-4.30;99.90
29341;DHT22;16337;59.536;13.468;2023-04-07T04:30:39;-4.30;99.90
29341;DHT22;16337;59.536;13.468;2023-04-07T04:33:05;-4.40;99.90
29341;DHT22;16337;59.536;13.468;2023-04-07T04:35:31;-4.30;99.90
29341;DHT22;16337;59.536;13.468;2023-04-07T04:37:57;-4.40;99.90
29341;DHT22;16337;59.536;13.468;2023-04-07T04:40:23;-4.30;99.90
29341;DHT22;16337;59.536;13.468;2023-04-07T04:42:49;-4.30;99.90
29341;DHT22;16337;59.536;13.468;2023-04-07T04:45:15;-4.30;99.90
29341;DHT22;16337;59.536;13.468;2023-04-07T04:47:40;-4.10;99.90
29341;DHT22;16337;59.536;13.468;2023-04-07T04:50:09;-4.10;99.90
29341;DHT22;16337;59.536;13.468;2023-04-07T04:52:35;-3.90;99.90
29341;DHT22;16337;59.536;13.468;2023-04-07T04:55:01;-3.80;99.90
29341;DHT22;16337;59.536;13.468;2023-04-07T04:57:26;-3.70;99.90
29341;DHT22;16337;59.536;13.468;2023-04-07T04:59:52;-3.50;99.90
29341;DHT22;16337;59.536;13.468;2023-04-07T05:02:18;-3.40;99.90
29341;DHT22;16337;59.536;13.468;2023-04-07T05:04:43;-3.40;99.90
29341;DHT22;16337;59.536;13.468;2023-04-07T05:07:09;-3.30;99.90
29341;DHT22;16337;59.536;13.468;2023-04-07T05:09:35;-3.30;99.90
29341;DHT22;16337;59.536;13.468;2023-04-07T05:12:01;-3.20;99.90
29341;DHT22;16337;59.536;13.468;2023-04-07T05:14:27;-3.20;99.90
29341;DHT22;16337;59.536;13.468;2023-04-07T05:16:53;-3.10;99.90
29341;DHT22;16337;59.536;13.468;2023-04-07T05:19:19;-2.90;99.90
29341;DHT22;16337;59.536;13.468;2023-04-07T05:21:45;-2.90;99.90
29341;DHT22;16337;59.536;13.468;2023-04-07T05:24:11;-2.70;99.90
29341;DHT22;16337;59.536;13.468;2023-04-07T05:26:36;-2.70;99.90
29341;DHT22;16337;59.536;13.468;2023-04-07T05:29:02;-2.60;99.90
29341;DHT22;16337;59.536;13.468;2023-04-07T05:31:28;-2.50;99.90
29341;DHT22;16337;59.536;13.468;2023-04-07T05:33:55;-2.40;99.90
29341;DHT22;16337;59.536;13.468;2023-04-07T05:36:21;-2.30;99.90
29341;DHT22;16337;59.536;13.468;2023-04-07T05:38:46;-2.20;99.90
29341;DHT22;16337;59.536;13.468;2023-04-07T05:41:12;-2.10;99.90
29341;DHT22;16337;59.536;13.468;2023-04-07T05:43:38;-2.10;99.90
29341;DHT22;16337;59.536;13.468;2023-04-07T05:46:03;-1.90;99.90
29341;DHT22;16337;59.536;13.468;2023-04-07T05:48:29;-1.80;99.90
29341;DHT22;16337;59.536;13.468;2023-04-07T05:50:55;-1.70;99.90
29341;DHT22;16337;59.536;13.468;2023-04-07T05:53:21;-1.50;99.90
29341;DHT22;16337;59.536;13.468;2023-04-07T05:55:46;-1.40;99.90
29341;DHT22;16337;59.536;13.468;2023-04-07T05:58:12;-1.20;99.90
29341;DHT22;16337;59.536;13.468;2023-04-07T06:00:39;-1.00;99.90
29341;DHT22;16337;59.536;13.468;2023-04-07T06:03:06;-0.90;99.90
29341;DHT22;16337;59.536;13.468;2023-04-07T06:05:31;-0.70;99.90
29341;DHT22;16337;59.536;13.468;2023-04-07T06:07:59;-0.60;99.90
29341;DHT22;16337;59.536;13.468;2023-04-07T06:10:24;-0.50;99.90
29341;DHT22;16337;59.536;13.468;2023-04-07T06:12:51;-0.30;99.90
29341;DHT22;16337;59.536;13.468;2023-04-07T06:15:16;-0.20;99.90
29341;DHT22;16337;59.536;13.468;2023-04-07T06:17:42;-0.10;99.90
29341;DHT22;16337;59.536;13.468;2023-04-07T06:20:10;0.10;99.90
29341;DHT22;16337;59.536;13.468;2023-04-07T06:22:37;0.20;99.90
29341;DHT22;16337;59.536;13.468;2023-04-07T06:25:03;0.30;99.90
29341;DHT22;16337;59.536;13.468;2023-04-07T06:27:29;0.40;99.90
29341;DHT22;16337;59.536;13.468;2023-04-07T06:29:55;0.50;99.90
29341;DHT22;16337;59.536;13.468;2023-04-07T06:32:21;0.60;99.90
29341;DHT22;16337;59.536;13.468;2023-04-07T06:34:47;0.70;99.90
29341;DHT22;16337;59.536;13.468;2023-04-07T06:37:12;0.80;99.90
29341;DHT22;16337;59.536;13.468;2023-04-07T06:39:38;0.80;99.90
29341;DHT22;16337;59.536;13.468;2023-04-07T06:42:05;0.90;99.90
29341;DHT22;16337;59.536;13.468;2023-04-07T06:44:31;1.00;99.90
29341;DHT22;16337;59.536;13.468;2023-04-07T06:46:57;1.10;99.90
29341;DHT22;16337;59.536;13.468;2023-04-07T06:49:22;1.10;99.90
29341;DHT22;16337;59.536;13.468;2023-04-07T06:51:48;1.30;99.90
29341;DHT22;16337;59.536;13.468;2023-04-07T06:54:14;1.50;99.90
29341;DHT22;16337;59.536;13.468;2023-04-07T06:56:40;1.70;99.90
29341;DHT22;16337;59.536;13.468;2023-04-07T06:59:06;1.80;99.90
29341;DHT22;16337;59.536;13.468;2023-04-07T07:01:32;1.90;99.90
29341;DHT22;16337;59.536;13.468;2023-04-07T07:03:58;2.10;99.90
29341;DHT22;16337;59.536;13.468;2023-04-07T07:06:27;2.20;99.90
29341;DHT22;16337;59.536;13.468;2023-04-07T07:08:53;2.20;99.90
29341;DHT22;16337;59.536;13.468;2023-04-07T07:11:18;2.30;99.90
29341;DHT22;16337;59.536;13.468;2023-04-07T07:13:45;2.50;99.90
29341;DHT22;16337;59.536;13.468;2023-04-07T07:16:12;2.70;99.90
29341;DHT22;16337;59.536;13.468;2023-04-07T07:18:38;2.80;99.90
29341;DHT22;16337;59.536;13.468;2023-04-07T07:21:04;2.90;99.90
29341;DHT22;16337;59.536;13.468;2023-04-07T07:23:30;3.10;99.90
29341;DHT22;16337;59.536;13.468;2023-04-07T07:25:55;3.30;99.90
29341;DHT22;16337;59.536;13.468;2023-04-07T07:28:21;3.30;99.90
29341;DHT22;16337;59.536;13.468;2023-04-07T07:30:48;3.40;99.90
29341;DHT22;16337;59.536;13.468;2023-04-07T07:33:14;3.50;99.90
29341;DHT22;16337;59.536;13.468;2023-04-07T07:35:40;3.70;99.90
29341;DHT22;16337;59.536;13.468;2023-04-07T07:38:06;3.90;99.90
29341;DHT22;16337;59.536;13.468;2023-04-07T07:40:32;4.10;99.90
29341;DHT22;16337;59.536;13.468;2023-04-07T07:42:59;4.20;99.90
29341;DHT22;16337;59.536;13.468;2023-04-07T07:45:25;4.30;99.90
29341;DHT22;16337;59.536;13.468;2023-04-07T07:47:52;4.40;99.90
29341;DHT22;16337;59.536;13.468;2023-04-07T07:50:17;4.50;99.90
29341;DHT22;16337;59.536;13.468;2023-04-07T07:52:43;4.40;99.90
29341;DHT22;16337;59.536;13.468;2023-04-07T07:55:09;4.50;99.90
29341;DHT22;16337;59.536;13.468;2023-04-07T07:57:35;4.70;99.90
29341;DHT22;16337;59.536;13.468;2023-04-07T08:00:01;5.00;99.90
29341;DHT22;16337;59.536;13.468;2023-04-07T08:02:28;5.30;99.90
29341;DHT22;16337;59.536;13.468;2023-04-07T08:04:57;5.50;99.90
29341;DHT22;16337;59.536;13.468;2023-04-07T08:07:22;5.60;99.90
29341;DHT22;16337;59.536;13.468;2023-04-07T08:09:48;5.80;99.90
29341;DHT22;16337;59.536;13.468;2023-04-07T08:12:14;6.00;99.90
29341;DHT22;16337;59.536;13.468;2023-04-07T08:14:40;6.10;99.90
29341;DHT22;16337;59.536;13.468;2023-04-07T08:17:06;6.20;99.90
29341;DHT22;16337;59.536;13.468;2023-04-07T08:19:32;6.20;99.90
29341;DHT22;16337;59.536;13.468;2023-04-07T08:21:57;6.20;99.90
29341;DHT22;16337;59.536;13.468;2023-04-07T08:24:23;6.20;99.90
29341;DHT22;16337;59.536;13.468;2023-04-07T08:26:49;6.30;99.90
29341;DHT22;16337;59.536;13.468;2023-04-07T08:29:18;6.80;99.90
29341;DHT22;16337;59.536;13.468;2023-04-07T08:31:43;7.00;99.90
29341;DHT22;16337;59.536;13.468;2023-04-07T08:34:09;7.00;99.90
29341;DHT22;16337;59.536;13.468;2023-04-07T08:36:35;7.10;99.90
29341;DHT22;16337;59.536;13.468;2023-04-07T08:39:00;7.30;99.90
29341;DHT22;16337;59.536;13.468;2023-04-07T08:41:32;7.60;99.90
29341;DHT22;16337;59.536;13.468;2023-04-07T08:44:00;8.10;99.90
29341;DHT22;16337;59.536;13.468;2023-04-07T08:46:27;8.30;99.90
29341;DHT22;16337;59.536;13.468;2023-04-07T08:48:55;8.20;99.90
29341;DHT22;16337;59.536;13.468;2023-04-07T08:51:30;8.20;99.90
29341;DHT22;16337;59.536;13.468;2023-04-07T08:54:10;8.20;99.90
29341;DHT22;16337;59.536;13.468;2023-04-07T08:56:41;8.50;99.90
29341;DHT22;16337;59.536;13.468;2023-04-07T08:59:09;8.90;99.90
29341;DHT22;16337;59.536;13.468;2023-04-07T09:01:36;9.00;99.90
29341;DHT22;16337;59.536;13.468;2023-04-07T09:04:06;8.90;99.90
29341;DHT22;16337;59.536;13.468;2023-04-07T09:06:35;8.80;99.90
29341;DHT22;16337;59.536;13.468;2023-04-07T09:09:02;8.70;99.90
29341;DHT22;16337;59.536;13.468;2023-04-07T09:11:34;8.40;99.90
29341;DHT22;16337;59.536;13.468;2023-04-07T09:14:00;8.70;99.90
29341;DHT22;16337;59.536;13.468;2023-04-07T09:16:32;9.00;99.90
29341;DHT22;16337;59.536;13.468;2023-04-07T09:18:58;9.10;99.90
29341;DHT22;16337;59.536;13.468;2023-04-07T09:21:24;9.50;99.90
29341;DHT22;16337;59.536;13.468;2023-04-07T09:23:51;9.60;99.90
29341;DHT22;16337;59.536;13.468;2023-04-07T09:28:44;10.10;99.90
29341;DHT22;16337;59.536;13.468;2023-04-07T09:31:11;10.40;99.90
29341;DHT22;16337;59.536;13.468;2023-04-07T09:33:37;10.70;99.90
29341;DHT22;16337;59.536;13.468;2023-04-07T09:36:04;10.80;99.90
29341;DHT22;16337;59.536;13.468;2023-04-07T09:38:39;10.60;99.90
29341;DHT22;16337;59.536;13.468;2023-04-07T09:41:08;10.50;99.90
29341;DHT22;16337;59.536;13.468;2023-04-07T09:43:42;10.60;99.90
29341;DHT22;16337;59.536;13.468;2023-04-07T09:46:16;10.90;99.90
29341;DHT22;16337;59.536;13.468;2023-04-07T09:48:44;11.30;99.90
29341;DHT22;16337;59.536;13.468;2023-04-07T09:51:15;11.50;99.90
29341;DHT22;16337;59.536;13.468;2023-04-07T09:53:46;11.90;99.90
29341;DHT22;16337;59.536;13.468;2023-04-07T09:56:18;11.90;99.90
29341;DHT22;16337;59.536;13.468;2023-04-07T09:58:45;11.80;99.90
29341;DHT22;16337;59.536;13.468;2023-04-07T10:01:12;11.90;99.90
29341;DHT22;16337;59.536;13.468;2023-04-07T10:03:39;12.20;99.90
29341;DHT22;16337;59.536;13.468;2023-04-07T10:06:05;12.50;99.90
29341;DHT22;16337;59.536;13.468;2023-04-07T10:08:33;12.50;99.90
29341;DHT22;16337;59.536;13.468;2023-04-07T10:11:04;12.20;99.90
29341;DHT22;16337;59.536;13.468;2023-04-07T10:13:34;12.10;99.90
29341;DHT22;16337;59.536;13.468;2023-04-07T10:16:05;12.20;99.90
29341;DHT22;16337;59.536;13.468;2023-04-07T10:18:33;12.20;99.90
29341;DHT22;16337;59.536;13.468;2023-04-07T10:21:03;12.30;99.90
29341;DHT22;16337;59.536;13.468;2023-04-07T10:26:00;12.90;99.90
29341;DHT22;16337;59.536;13.468;2023-04-07T10:28:27;13.40;99.90
29341;DHT22;16337;59.536;13.468;2023-04-07T10:30:55;13.40;99.90
29341;DHT22;16337;59.536;13.468;2023-04-07T10:36:09;14.20;99.90
29341;DHT22;16337;59.536;13.468;2023-04-07T10:38:38;13.70;99.90
29341;DHT22;16337;59.536;13.468;2023-04-07T10:41:32;14.10;99.90
29341;DHT22;16337;59.536;13.468;2023-04-07T10:43:59;14.50;99.60
29341;DHT22;16337;59.536;13.468;2023-04-07T10:46:38;14.70;99.40
29341;DHT22;16337;59.536;13.468;2023-04-07T10:49:13;15.10;98.80
29341;DHT22;16337;59.536;13.468;2023-04-07T10:51:39;15.20;98.10
29341;DHT22;16337;59.536;13.468;2023-04-07T10:54:21;14.40;95.80
29341;DHT22;16337;59.536;13.468;2023-04-07T10:59:36;14.10;97.10
29341;DHT22;16337;59.536;13.468;2023-04-07T11:04:45;14.50;97.10
29341;DHT22;16337;59.536;13.468;2023-04-07T11:07:12;15.10;97.00
29341;DHT22;16337;59.536;13.468;2023-04-07T11:09:39;15.10;95.80
29341;DHT22;16337;59.536;13.468;2023-04-07T11:12:06;15.30;95.40
29341;DHT22;16337;59.536;13.468;2023-04-07T11:14:32;14.90;95.10
29341;DHT22;16337;59.536;13.468;2023-04-07T11:16:59;15.00;96.30
29341;DHT22;16337;59.536;13.468;2023-04-07T11:19:28;15.40;93.70
29341;DHT22;16337;59.536;13.468;2023-04-07T11:22:13;15.80;94.30
29341;DHT22;16337;59.536;13.468;2023-04-07T11:24:40;15.90;93.40
29341;DHT22;16337;59.536;13.468;2023-04-07T11:27:11;15.70;93.30
29341;DHT22;16337;59.536;13.468;2023-04-07T11:29:37;15.70;93.50
29341;DHT22;16337;59.536;13.468;2023-04-07T11:32:03;15.70;91.60
29341;DHT22;16337;59.536;13.468;2023-04-07T11:34:30;15.60;93.60
29341;DHT22;16337;59.536;13.468;2023-04-07T11:36:57;15.90;93.70
29341;DHT22;16337;59.536;13.468;2023-04-07T11:39:26;16.10;93.00
29341;DHT22;16337;59.536;13.468;2023-04-07T11:41:52;15.70;90.90
29341;DHT22;16337;59.536;13.468;2023-04-07T11:44:19;15.60;93.00
29341;DHT22;16337;59.536;13.468;2023-04-07T11:47:00;15.40;93.30
29341;DHT22;16337;59.536;13.468;2023-04-07T11:49:28;15.20;92.90
29341;DHT22;16337;59.536;13.468;2023-04-07T11:52:01;15.40;92.90
29341;DHT22;16337;59.536;13.468;2023-04-07T11:54:41;15.40;90.90
29341;DHT22;16337;59.536;13.468;2023-04-07T11:57:07;15.00;90.20
29341;DHT22;16337;59.536;13.468;2023-04-07T11:59:34;15.40;91.20
29341;DHT22;16337;59.536;13.468;2023-04-07T12:02:00;16.20;92.70
29341;DHT22;16337;59.536;13.468;2023-04-07T12:04:26;16.50;89.90
29341;DHT22;16337;59.536;13.468;2023-04-07T12:06:52;16.80;90.10
29341;DHT22;16337;59.536;13.468;2023-04-07T12:09:29;17.10;85.80
29341;DHT22;16337;59.536;13.468;2023-04-07T12:11:56;16.60;88.20
29341;DHT22;16337;59.536;13.468;2023-04-07T12:14:23;15.50;89.10
29341;DHT22;16337;59.536;13.468;2023-04-07T12:16:49;15.00;89.90
29341;DHT22;16337;59.536;13.468;2023-04-07T12:19:15;15.40;90.10
29341;DHT22;16337;59.536;13.468;2023-04-07T12:21:41;15.70;88.30
29341;DHT22;16337;59.536;13.468;2023-04-07T12:24:08;16.10;87.10
29341;DHT22;16337;59.536;13.468;2023-04-07T12:26:34;16.10;86.30
29341;DHT22;16337;59.536;13.468;2023-04-07T12:28:59;15.60;88.50
29341;DHT22;16337;59.536;13.468;2023-04-07T12:31:33;15.60;89.90
29341;DHT22;16337;59.536;13.468;2023-04-07T12:33:59;15.70;90.50
29341;DHT22;16337;59.536;13.468;2023-04-07T12:36:25;16.00;87.80
29341;DHT22;16337;59.536;13.468;2023-04-07T12:38:55;16.10;88.20
29341;DHT22;16337;59.536;13.468;2023-04-07T12:41:21;15.70;87.30
29341;DHT22;16337;59.536;13.468;2023-04-07T12:43:47;15.50;90.20
29341;DHT22;16337;59.536;13.468;2023-04-07T12:46:13;15.70;88.20
29341;DHT22;16337;59.536;13.468;2023-04-07T12:48:38;15.80;87.20
29341;DHT22;16337;59.536;13.468;2023-04-07T12:51:04;15.60;88.00
29341;DHT22;16337;59.536;13.468;2023-04-07T12:53:30;14.80;86.90
29341;DHT22;16337;59.536;13.468;2023-04-07T12:55:57;14.40;88.10
29341;DHT22;16337;59.536;13.468;2023-04-07T12:58:24;14.40;90.30
29341;DHT22;16337;59.536;13.468;2023-04-07T13:00:51;14.90;89.70
29341;DHT22;16337;59.536;13.468;2023-04-07T13:03:16;14.70;87.70
29341;DHT22;16337;59.536;13.468;2023-04-07T13:05:42;14.60;87.70
29341;DHT22;16337;59.536;13.468;2023-04-07T13:08:08;14.60;90.50
29341;DHT22;16337;59.536;13.468;2023-04-07T13:10:34;14.80;88.90
29341;DHT22;16337;59.536;13.468;2023-04-07T13:13:00;14.70;90.80
29341;DHT22;16337;59.536;13.468;2023-04-07T13:15:26;14.90;90.10
29341;DHT22;16337;59.536;13.468;2023-04-07T13:17:53;15.30;88.10
29341;DHT22;16337;59.536;13.468;2023-04-07T13:20:20;15.10;88.00
29341;DHT22;16337;59.536;13.468;2023-04-07T13:22:46;14.50;88.20
29341;DHT22;16337;59.536;13.468;2023-04-07T13:25:12;14.60;88.80
29341;DHT22;16337;59.536;13.468;2023-04-07T13:27:38;14.60;87.60
29341;DHT22;16337;59.536;13.468;2023-04-07T13:30:04;14.70;88.80
29341;DHT22;16337;59.536;13.468;2023-04-07T13:32:31;14.90;86.20
29341;DHT22;16337;59.536;13.468;2023-04-07T13:34:56;14.50;85.80
29341;DHT22;16337;59.536;13.468;2023-04-07T13:37:25;14.30;89.10
29341;DHT22;16337;59.536;13.468;2023-04-07T13:39:51;14.40;88.20
29341;DHT22;16337;59.536;13.468;2023-04-07T13:42:17;14.60;87.50
29341;DHT22;16337;59.536;13.468;2023-04-07T13:44:45;14.50;88.60
29341;DHT22;16337;59.536;13.468;2023-04-07T13:47:12;14.40;87.50
29341;DHT22;16337;59.536;13.468;2023-04-07T13:49:45;14.70;86.20
29341;DHT22;16337;59.536;13.468;2023-04-07T13:52:10;14.80;86.00
29341;DHT22;16337;59.536;13.468;2023-04-07T13:54:37;15.00;85.70
29341;DHT22;16337;59.536;13.468;2023-04-07T13:57:04;15.00;84.90
29341;DHT22;16337;59.536;13.468;2023-04-07T13:59:30;14.90;85.10
29341;DHT22;16337;59.536;13.468;2023-04-07T14:01:55;15.00;84.70
29341;DHT22;16337;59.536;13.468;2023-04-07T14:04:21;15.00;82.50
29341;DHT22;16337;59.536;13.468;2023-04-07T14:06:48;14.50;82.70
29341;DHT22;16337;59.536;13.468;2023-04-07T14:09:14;14.00;83.30
29341;DHT22;16337;59.536;13.468;2023-04-07T14:11:39;13.60;85.30
29341;DHT22;16337;59.536;13.468;2023-04-07T14:14:06;13.80;85.40
29341;DHT22;16337;59.536;13.468;2023-04-07T14:16:31;13.90;85.80
29341;DHT22;16337;59.536;13.468;2023-04-07T14:18:57;13.90;85.50
29341;DHT22;16337;59.536;13.468;2023-04-07T14:21:23;13.60;84.00
29341;DHT22;16337;59.536;13.468;2023-04-07T14:23:49;13.60;83.60
29341;DHT22;16337;59.536;13.468;2023-04-07T14:26:15;13.80;83.70
29341;DHT22;16337;59.536;13.468;2023-04-07T14:28:41;13.70;82.30
29341;DHT22;16337;59.536;13.468;2023-04-07T14:31:14;13.50;83.20
29341;DHT22;16337;59.536;13.468;2023-04-07T14:33:44;13.30;85.60
29341;DHT22;16337;59.536;13.468;2023-04-07T14:36:12;13.00;85.40
29341;DHT22;16337;59.536;13.468;2023-04-07T14:38:38;13.00;84.20
29341;DHT22;16337;59.536;13.468;2023-04-07T14:41:03;12.70;85.90
29341;DHT22;16337;59.536;13.468;2023-04-07T14:43:30;12.40;86.40
29341;DHT22;16337;59.536;13.468;2023-04-07T14:45:55;12.30;85.80
29341;DHT22;16337;59.536;13.468;2023-04-07T14:48:22;12.10;85.60
29341;DHT22;16337;59.536;13.468;2023-04-07T14:50:47;12.10;85.90
29341;DHT22;16337;59.536;13.468;2023-04-07T14:53:13;12.10;86.50
29341;DHT22;16337;59.536;13.468;2023-04-07T14:55:41;12.00;86.80
29341;DHT22;16337;59.536;13.468;2023-04-07T14:58:06;11.80;87.10
29341;DHT22;16337;59.536;13.468;2023-04-07T15:00:33;11.60;87.30
29341;DHT22;16337;59.536;13.468;2023-04-07T15:02:58;11.40;88.50
29341;DHT22;16337;59.536;13.468;2023-04-07T15:05:24;11.20;90.30
29341;DHT22;16337;59.536;13.468;2023-04-07T15:07:53;11.00;92.20
29341;DHT22;16337;59.536;13.468;2023-04-07T15:10:20;10.70;93.10
29341;DHT22;16337;59.536;13.468;2023-04-07T15:12:45;10.50;91.60
29341;DHT22;16337;59.536;13.468;2023-04-07T15:15:20;10.40;92.20
29341;DHT22;16337;59.536;13.468;2023-04-07T15:17:46;10.40;91.70
29341;DHT22;16337;59.536;13.468;2023-04-07T15:20:12;10.20;93.60
29341;DHT22;16337;59.536;13.468;2023-04-07T15:22:37;10.10;92.40
29341;DHT22;16337;59.536;13.468;2023-04-07T15:25:03;9.90;94.00
29341;DHT22;16337;59.536;13.468;2023-04-07T15:27:29;9.80;92.70
29341;DHT22;16337;59.536;13.468;2023-04-07T15:29:55;9.80;93.00
29341;DHT22;16337;59.536;13.468;2023-04-07T15:32:21;9.90;91.40
29341;DHT22;16337;59.536;13.468;2023-04-07T15:34:46;9.80;93.30
29341;DHT22;16337;59.536;13.468;2023-04-07T15:37:13;9.70;93.50
29341;DHT22;16337;59.536;13.468;2023-04-07T15:39:41;9.70;92.30
29341;DHT22;16337;59.536;13.468;2023-04-07T15:42:07;9.80;93.60
29341;DHT22;16337;59.536;13.468;2023-04-07T15:44:37;9.60;92.90
29341;DHT22;16337;59.536;13.468;2023-04-07T15:47:05;9.60;95.30